Flight Sim Network - KRYN Airport Info

    KRYN (Ryan Field)  Login to use Map Selector
   

  RUNWAY INFORMATION    |    Airport Elevation : 2417ft    |    LAT : 32.1422004699707  /  LON : -111.175003051758
Runway Number 06R / 24L Runway Width 75' Runway Length 5500'
Lighted Runway Yes Runway StatusOpen Runway Surface Asphalt
Runway Number 06L / 24R Runway Width 75' Runway Length 4900'
Lighted Runway No Runway StatusOpen Runway Surface Asphalt
Runway Number 15 / 33 Runway Width 75' Runway Length 4000'
Lighted Runway No Runway StatusOpen Runway Surface Asphalt
  CLOSE ALTERNATE AIRPORTS
ICAODistanceAirport NameLongest RWRW SurfaceMAP
4AZ012NMPalm Valley Tucson Airport4000FTGrass
KTUS12NMTucson International Airport10998FTAsphalt
0AZ112NMTaylor Field3250FTGrass
14AZ14NMRuby Star Airpark4300FTAsphalt
KDMA15NMDavis Monthan Air Force Base13652FTConcrete
KAVQ16NMMarana Regional Airport6903FTAsphalt
57AZ20NMLa Cholla Airpark4500FTAsphalt
AZ6720NMEl Tiro Gliderport5120FTGrass
35AZ21NMContinental Airport3500FTAsphalt
KMZJ23NMPinal Airpark6853FTAsphalt
  AIRPORT WEATHER
91°F | 33°C
Temperature
36%
Humidity
29" | 0mb
Pressure
10sm
Visibility
VFR
Flight Rules
CLR
Initial Clouds
FAIR
Conditions
Wind Info
7/23/24 17:45Z
Updated

KRYN 231745Z 06007KT 10SM CLR 33/16 A2999
  AIRPORT FREQUENCIES
NameFrequency
CLEARANCE133.350
GROUND118.200
TOWER125.800
MULTICOM125.800
APPROACH128.500
DEPARTURE128.500
IIVI (RWY 6R)111.100

Powered by Virtual Airlines Manager